createdAt,value
2022-10-30T00:02:28.035Z,1607
2022-10-30T00:07:46.247Z,1606
2022-10-30T00:13:04.153Z,1621
2022-10-30T00:18:22.333Z,1636
2022-10-30T00:23:40.863Z,1630
2022-10-30T00:28:58.807Z,1634
2022-10-30T00:34:17.550Z,1621
2022-10-30T00:39:36.082Z,1615
2022-10-30T00:44:54.529Z,1617
2022-10-30T00:50:12.776Z,1612
2022-10-30T00:55:31.371Z,1610
2022-10-30T01:00:49.552Z,1608
2022-10-30T01:06:08.336Z,1614
2022-10-30T01:11:26.554Z,1603
2022-10-30T01:16:44.700Z,1608
2022-10-30T01:22:03.450Z,1604
2022-10-30T01:27:22.256Z,1605
2022-10-30T01:32:40.439Z,1603
2022-10-30T01:37:58.918Z,1598
2022-10-30T01:43:18.323Z,1590
2022-10-30T01:48:36.813Z,1595
2022-10-30T01:53:55.019Z,1606
2022-10-30T01:59:13.497Z,1593
2022-10-30T02:04:32.250Z,1586
2022-10-30T02:09:50.738Z,1587
2022-10-30T02:15:09.524Z,1580
2022-10-30T02:20:27.730Z,1588
2022-10-30T02:25:46.476Z,1579
2022-10-30T02:31:05.033Z,1581
2022-10-30T02:36:23.479Z,1567
2022-10-30T02:41:41.692Z,1579
2022-10-30T02:47:00.506Z,1592
2022-10-30T02:52:18.670Z,1580
2022-10-30T02:57:37.157Z,1579
2022-10-30T03:02:55.732Z,1582
2022-10-30T03:08:14.020Z,1572
2022-10-30T03:13:32.768Z,1569
2022-10-30T03:18:51.257Z,1567
2022-10-30T03:24:09.173Z,1561
2022-10-30T03:29:27.935Z,1553
2022-10-30T03:34:46.726Z,1549
2022-10-30T03:40:05.198Z,1549
2022-10-30T03:45:23.397Z,1568
2022-10-30T03:50:41.638Z,1552
2022-10-30T03:56:00.399Z,1533
2022-10-30T04:01:19.040Z,1530
2022-10-30T04:06:37.736Z,1525
2022-10-30T04:11:55.897Z,1537
2022-10-30T04:17:14.419Z,1530
2022-10-30T04:22:32.931Z,1514
2022-10-30T04:27:50.826Z,1511
2022-10-30T04:33:09.327Z,1508
2022-10-30T04:38:27.839Z,1513
2022-10-30T04:43:46.299Z,1512
2022-10-30T04:49:04.807Z,1508
2022-10-30T04:54:23.304Z,1508
2022-10-30T04:59:41.227Z,1503
2022-10-30T05:04:59.972Z,1507
2022-10-30T05:10:18.495Z,1507
2022-10-30T05:15:37.255Z,1502
2022-10-30T05:20:56.022Z,1508
2022-10-30T05:26:14.571Z,1518
2022-10-30T05:31:33.032Z,1517
2022-10-30T05:36:51.222Z,1503
2022-10-30T05:42:13.501Z,1510
2022-10-30T05:47:32.427Z,1515
2022-10-30T05:52:50.899Z,1518
2022-10-30T05:58:09.417Z,1525
2022-10-30T06:03:27.881Z,1559
2022-10-30T06:08:46.511Z,1538
2022-10-30T06:14:05.011Z,1525
2022-10-30T06:19:23.503Z,1577
2022-10-30T06:24:42.235Z,1603
2022-10-30T06:30:00.760Z,1630
2022-10-30T06:35:19.516Z,1657
2022-10-30T06:40:43.787Z,1667
2022-10-30T06:46:02.380Z,1698
2022-10-30T06:51:20.804Z,1722
2022-10-30T06:56:38.996Z,1722
2022-10-30T07:01:59.213Z,1723
2022-10-30T07:07:26.155Z,1733
2022-10-30T07:12:44.631Z,1728
2022-10-30T07:18:03.189Z,1701
2022-10-30T07:23:21.966Z,1719
2022-10-30T07:28:40.158Z,1706
2022-10-30T07:33:58.680Z,1693
2022-10-30T07:39:17.417Z,1702
2022-10-30T07:44:36.176Z,1721
2022-10-30T07:49:54.943Z,1715
2022-10-30T07:55:13.130Z,1688
2022-10-30T08:00:31.618Z,1371
2022-10-30T08:05:50.114Z,1016
2022-10-30T08:11:08.023Z,1085
2022-10-30T08:16:26.793Z,1138
2022-10-30T08:21:45.566Z,1214
2022-10-30T08:27:04.011Z,1263
2022-10-30T08:32:22.523Z,1268
2022-10-30T08:37:41.309Z,1262
2022-10-30T08:42:43.883Z,1267
2022-10-30T08:48:02.888Z,1300
2022-10-30T08:53:21.418Z,1320
2022-10-30T08:58:39.884Z,1322
2022-10-30T09:03:58.361Z,1330
2022-10-30T09:09:17.148Z,1338
2022-10-30T09:14:35.626Z,1324
2022-10-30T09:19:54.373Z,1332
2022-10-30T09:25:12.880Z,1310
2022-10-30T09:30:31.651Z,1325
2022-10-30T09:35:49.826Z,1355
2022-10-30T09:41:08.687Z,1360
2022-10-30T09:46:27.147Z,1339
2022-10-30T09:51:45.630Z,1312
2022-10-30T09:57:04.167Z,1305
2022-10-30T10:02:22.750Z,1124
2022-10-30T10:07:41.885Z,1013
2022-10-30T10:13:01.373Z,889
2022-10-30T10:18:20.722Z,829
2022-10-30T10:23:38.988Z,780
2022-10-30T10:28:57.778Z,718
2022-10-30T10:34:16.243Z,704
2022-10-30T10:39:34.435Z,680
2022-10-30T10:44:52.968Z,644
2022-10-30T10:50:11.168Z,613
2022-10-30T10:55:29.767Z,610
2022-10-30T11:00:48.919Z,643
2022-10-30T11:06:07.388Z,655
2022-10-30T11:11:25.847Z,591
2022-10-30T11:16:44.360Z,589
2022-10-30T11:22:02.545Z,590
2022-10-30T11:27:21.281Z,590
2022-10-30T11:32:39.868Z,572
2022-10-30T11:37:58.832Z,567
2022-10-30T11:43:17.594Z,560
2022-10-30T11:48:37.208Z,541
2022-10-30T11:53:56.043Z,524
2022-10-30T11:59:14.554Z,516
2022-10-30T12:04:33.133Z,519
2022-10-30T12:09:51.808Z,517
2022-10-30T12:15:10.243Z,520
2022-10-30T12:20:29.060Z,509
2022-10-30T12:25:47.504Z,479
2022-10-30T12:31:05.532Z,472
2022-10-30T12:36:24.289Z,468
2022-10-30T12:41:42.753Z,522
2022-10-30T12:47:01.210Z,512
2022-10-30T12:52:19.748Z,493
2022-10-30T12:57:38.197Z,544
2022-10-30T13:02:57.265Z,577
2022-10-30T13:08:17.305Z,579
2022-10-30T13:13:35.791Z,621
2022-10-30T13:18:54.304Z,775
2022-10-30T13:24:12.529Z,757
2022-10-30T13:29:30.969Z,731
2022-10-30T13:34:49.446Z,734
2022-10-30T13:40:08.004Z,746
2022-10-30T13:45:11.133Z,763
2022-10-30T13:50:29.928Z,785
2022-10-30T13:55:48.151Z,816
2022-10-30T14:01:06.097Z,852
2022-10-30T14:06:24.402Z,848
2022-10-30T14:11:44.190Z,868
2022-10-30T14:17:02.361Z,900
2022-10-30T14:22:20.815Z,909
2022-10-30T14:27:39.603Z,926
2022-10-30T14:32:57.786Z,963
2022-10-30T14:38:16.559Z,969
2022-10-30T14:43:34.771Z,953
2022-10-30T14:48:52.667Z,928
2022-10-30T14:54:15.643Z,916
2022-10-30T14:59:36.862Z,920
2022-10-30T15:04:55.039Z,853
2022-10-30T15:10:13.242Z,882
2022-10-30T15:15:16.400Z,917
2022-10-30T15:20:34.856Z,932
2022-10-30T15:25:53.359Z,947
2022-10-30T15:31:11.896Z,962
2022-10-30T15:36:30.105Z,973
2022-10-30T15:41:48.582Z,997
2022-10-30T15:47:12.351Z,1013
2022-10-30T15:52:30.819Z,1028
2022-10-30T15:58:02.659Z,1038
2022-10-30T16:03:22.972Z,1042
2022-10-30T16:08:41.449Z,1032
2022-10-30T16:13:59.887Z,1011
2022-10-30T16:19:18.396Z,1073
2022-10-30T16:24:36.611Z,806
2022-10-30T16:29:55.345Z,957
2022-10-30T16:35:14.170Z,1047
2022-10-30T16:40:32.376Z,1085
2022-10-30T16:45:50.857Z,1094
2022-10-30T16:50:54.015Z,1114
2022-10-30T16:56:12.222Z,1132
2022-10-30T17:01:30.540Z,1116
2022-10-30T17:11:41.121Z,1060
2022-10-30T17:17:00.095Z,1029
2022-10-30T17:22:18.853Z,1071
2022-10-30T17:27:39.816Z,1073
2022-10-30T17:33:05.306Z,1009
2022-10-30T17:38:23.523Z,975
2022-10-30T17:43:41.451Z,886
2022-10-30T17:48:59.907Z,902
2022-10-30T17:54:18.685Z,870
2022-10-30T17:59:37.169Z,813
2022-10-30T18:04:55.338Z,788
2022-10-30T18:10:14.090Z,783
2022-10-30T18:15:32.336Z,781
2022-10-30T18:20:50.790Z,789
2022-10-30T18:26:09.569Z,798
2022-10-30T18:31:28.056Z,824
2022-10-30T18:36:46.253Z,872
2022-10-30T18:42:04.728Z,915
2022-10-30T18:47:23.501Z,895
2022-10-30T18:52:41.956Z,701
2022-10-30T18:58:00.417Z,728
2022-10-30T19:03:20.371Z,816
2022-10-30T19:08:38.580Z,736
2022-10-30T19:13:57.319Z,769
2022-10-30T19:19:15.824Z,862
2022-10-30T19:24:18.662Z,954
2022-10-30T19:29:37.425Z,980
2022-10-30T19:34:55.937Z,995
2022-10-30T19:40:14.408Z,1015
2022-10-30T19:45:33.185Z,1062
2022-10-30T19:50:51.956Z,1072
2022-10-30T19:56:10.700Z,1040
2022-10-30T20:01:29.353Z,1054
2022-10-30T20:06:47.907Z,1076
2022-10-30T20:12:06.367Z,1097
2022-10-30T20:17:24.842Z,1124
2022-10-30T20:22:43.350Z,1176
2022-10-30T20:28:03.800Z,1191
2022-10-30T20:33:25.611Z,1234
2022-10-30T20:38:43.821Z,1259
2022-10-30T20:44:02.018Z,1278
2022-10-30T20:49:20.796Z,1403
2022-10-30T20:54:39.587Z,1447
2022-10-30T20:59:58.025Z,1491
2022-10-30T21:05:38.456Z,1484
2022-10-30T21:11:03.595Z,1465
2022-10-30T21:16:22.037Z,1478
2022-10-30T21:21:40.813Z,1521
2022-10-30T21:26:59.054Z,1535
2022-10-30T21:32:17.829Z,1536
2022-10-30T21:37:36.566Z,1544
2022-10-30T21:42:56.425Z,1571
2022-10-30T21:48:22.300Z,1592
2022-10-30T21:53:40.760Z,1587
2022-10-30T21:58:59.289Z,1590
2022-10-30T22:04:17.785Z,1588
2022-10-30T22:09:36.237Z,1595
2022-10-30T22:14:54.762Z,1604
2022-10-30T22:20:13.522Z,1590
2022-10-30T22:25:31.989Z,1578
2022-10-30T22:30:50.530Z,1570
2022-10-30T22:36:08.777Z,1568
2022-10-30T22:41:27.811Z,1560
2022-10-30T22:46:56.512Z,1594
2022-10-30T22:52:15.254Z,1599
2022-10-30T22:57:33.465Z,1598
2022-10-30T23:02:52.284Z,1598
2022-10-30T23:08:10.791Z,1580
2022-10-30T23:13:29.254Z,1644
2022-10-30T23:18:47.471Z,1648
2022-10-30T23:24:05.372Z,1640
2022-10-30T23:29:24.142Z,1629
2022-10-30T23:34:42.940Z,1635
2022-10-30T23:40:01.410Z,1655
2022-10-30T23:45:19.905Z,1638
2022-10-30T23:50:38.432Z,1634
2022-10-30T23:55:56.612Z,1628
